Weather at Ouvéa Airport

Public forecast

Using degrees Celsius for public forecast. Weather courtesy of forecast.io.

Current aviation weather report (METAR) for Ouvéa Airport

Report is more than 6 hours old.

Retrieved 2014/09/17 04:34 UTC (7 years ago):

NWWV 170434Z AUTO VRB02KT 8000 BKN024/// BKN029/// 25/21 Q1012

Aviation forecast (TAF) for Ouvéa Airport

Forecast is more than 12 hours old.

Retrieved 2018/10/12 06:00 UTC (3 years ago):

TAF NWWV 120500Z 1206/1306 13008KT 9999 FEW023 BECMG 1300/1302 13015KT